Time;durP1;ratioP1;P1;durP2;ratioP2;P2;SDS_P1;SDS_P2;PMS_P1;PMS_P2;Temp;Humidity;BMP_temperature;BMP_pressure;BME280_temperature;BME280_humidity;BME280_pressure;Samples;Min_cycle;Max_cycle;Signal;HPM_P1;HPM_P2
2023/01/28 00:01:05;;;;;;;40.90;22.25;;;;;;;;;;4955043;29;20063;-73
2023/01/28 00:03:31;;;;;;;35.40;19.65;;;;;;;;;;4954170;28;20037;-72
2023/01/28 00:06:05;;;;;;;35.63;20.98;;;;;;;;;;4955748;28;20132;-71
2023/01/28 00:08:32;;;;;;;32.83;19.50;;;;;;;;;;4954872;28;20067;-73
2023/01/28 00:10:59;;;;;;;33.28;18.60;;;;;;;;;;4954983;28;20031;-73
2023/01/28 00:13:25;;;;;;;36.30;18.42;;;;;;;;;;4955190;28;20042;-72
2023/01/28 00:15:58;;;;;;;30.17;17.42;;;;;;;;;;4955008;29;20057;-72
2023/01/28 00:18:25;;;;;;;23.38;16.05;;;;;;;;;;4954475;28;20102;-73
2023/01/28 00:20:57;;;;;;;25.10;15.07;;;;;;;;;;4954715;28;20027;-73
2023/01/28 00:23:24;;;;;;;20.42;14.25;;;;;;;;;;4955036;28;20054;-73
2023/01/28 00:25:50;;;;;;;21.67;14.23;;;;;;;;;;4987476;23;20146;-71
2023/01/28 00:28:16;;;;;;;23.42;15.73;;;;;;;;;;4976589;28;20027;-72
2023/01/28 00:30:42;;;;;;;22.35;14.90;;;;;;;;;;4974813;28;20026;-72
2023/01/28 00:33:08;;;;;;;27.13;15.82;;;;;;;;;;4975148;28;20077;-72
2023/01/28 00:35:33;;;;;;;23.02;16.65;;;;;;;;;;4974943;28;20073;-73
2023/01/28 00:38:03;;;;;;;25.77;15.93;;;;;;;;;;4974588;28;20023;-72
2023/01/28 00:40:29;;;;;;;25.52;15.07;;;;;;;;;;4981085;28;20030;-72
2023/01/28 00:42:55;;;;;;;21.63;14.75;;;;;;;;;;4984617;28;20022;-73
2023/01/28 00:45:21;;;;;;;23.45;16.05;;;;;;;;;;4983749;28;20029;-73
2023/01/28 00:47:47;;;;;;;24.90;16.13;;;;;;;;;;4982910;28;20019;-72
2023/01/28 00:50:13;;;;;;;24.10;14.88;;;;;;;;;;4973532;28;20119;-73
2023/01/28 00:52:39;;;;;;;22.38;13.50;;;;;;;;;;4973860;28;20050;-73
2023/01/28 00:55:06;;;;;;;19.75;12.80;;;;;;;;;;4973027;28;20046;-73
2023/01/28 00:57:32;;;;;;;17.02;12.02;;;;;;;;;;4972980;28;20046;-72
2023/01/28 00:59:58;;;;;;;18.27;12.13;;;;;;;;;;4973059;28;20018;-72
2023/01/28 01:02:24;;;;;;;21.98;13.50;;;;;;;;;;4972764;28;20041;-72
2023/01/28 01:05:00;;;;;;;17.38;12.07;;;;;;;;;;4972361;28;20063;-72
2023/01/28 01:07:40;;;;;;;17.95;11.95;;;;;;;;;;4953409;28;20024;-72
2023/01/28 01:10:06;;;;;;;21.10;12.45;;;;;;;;;;4953519;28;20435;-72
2023/01/28 01:12:33;;;;;;;19.52;12.55;;;;;;;;;;4952141;28;20098;-72
2023/01/28 01:14:59;;;;;;;19.00;13.52;;;;;;;;;;4956452;28;20039;-73
2023/01/28 01:17:25;;;;;;;17.20;12.55;;;;;;;;;;4957195;28;20031;-72
2023/01/28 01:19:51;;;;;;;18.92;12.52;;;;;;;;;;4957277;28;20501;-73
2023/01/28 01:22:17;;;;;;;21.95;13.20;;;;;;;;;;4957454;28;20027;-73
2023/01/28 01:24:43;;;;;;;21.65;13.13;;;;;;;;;;4957913;29;20032;-73
2023/01/28 01:27:09;;;;;;;23.17;15.32;;;;;;;;;;4957021;28;20521;-72
2023/01/28 01:29:35;;;;;;;24.60;15.30;;;;;;;;;;4957524;28;20027;-72
2023/01/28 01:32:01;;;;;;;22.67;14.70;;;;;;;;;;4957397;28;20027;-73
2023/01/28 01:34:27;;;;;;;25.15;14.73;;;;;;;;;;4956821;28;20030;-73
2023/01/28 01:36:53;;;;;;;26.10;15.60;;;;;;;;;;4956845;28;20472;-73
2023/01/28 01:39:19;;;;;;;22.50;15.07;;;;;;;;;;4956899;28;20035;-72
2023/01/28 01:41:45;;;;;;;27.20;14.43;;;;;;;;;;4956794;28;20098;-72
2023/01/28 01:44:30;;;;;;;22.02;14.32;;;;;;;;;;4956758;28;20445;-72
2023/01/28 01:46:56;;;;;;;24.50;15.38;;;;;;;;;;4956748;28;20082;-72
2023/01/28 01:49:23;;;;;;;27.02;15.70;;;;;;;;;;4956576;28;20130;-72
2023/01/28 01:51:52;;;;;;;30.77;15.70;;;;;;;;;;4956792;28;20492;-72
2023/01/28 01:54:20;;;;;;;25.73;15.65;;;;;;;;;;4956656;28;20035;-73
2023/01/28 01:56:48;;;;;;;22.42;15.48;;;;;;;;;;4956460;28;20114;-73
2023/01/28 01:59:15;;;;;;;25.33;15.18;;;;;;;;;;4956285;29;20054;-73
2023/01/28 02:01:41;;;;;;;25.50;14.77;;;;;;;;;;4956839;28;20030;-73
2023/01/28 02:04:13;;;;;;;23.67;14.38;;;;;;;;;;4958108;28;20027;-73
2023/01/28 02:06:39;;;;;;;21.58;14.57;;;;;;;;;;4957841;29;20039;-73
2023/01/28 02:09:24;;;;;;;21.52;14.38;;;;;;;;;;4956355;28;20110;-70
2023/01/28 02:11:51;;;;;;;23.15;14.55;;;;;;;;;;4956278;28;20027;-71
2023/01/28 02:14:17;;;;;;;23.52;14.77;;;;;;;;;;4956268;29;20059;-72
2023/01/28 02:16:43;;;;;;;24.17;14.80;;;;;;;;;;4956115;28;20394;-72
2023/01/28 02:19:10;;;;;;;21.23;13.13;;;;;;;;;;4956046;28;20416;-72
2023/01/28 02:21:59;;;;;;;24.83;13.32;;;;;;;;;;4956277;28;20106;-72
2023/01/28 02:24:28;;;;;;;19.73;12.43;;;;;;;;;;4947274;28;20406;-72
2023/01/28 02:27:04;;;;;;;18.65;10.93;;;;;;;;;;4954638;28;20462;-72
2023/01/28 02:29:34;;;;;;;23.10;12.55;;;;;;;;;;4956066;29;20034;-71
2023/01/28 02:32:07;;;;;;;19.38;11.98;;;;;;;;;;4955952;28;20388;-72
2023/01/28 02:34:39;;;;;;;19.63;11.88;;;;;;;;;;4959491;28;20407;-72
2023/01/28 02:37:21;;;;;;;18.38;12.07;;;;;;;;;;4952601;28;20031;-72
2023/01/28 02:39:49;;;;;;;21.30;11.88;;;;;;;;;;4955642;28;20019;-73
2023/01/28 02:42:18;;;;;;;16.67;11.73;;;;;;;;;;4955355;29;20024;-72
2023/01/28 02:44:44;;;;;;;20.13;11.30;;;;;;;;;;4955353;29;20027;-72
2023/01/28 02:49:57;;;;;;;20.20;11.95;;;;;;;;;;4955666;29;20397;-72
2023/01/28 02:55:34;;;;;;;17.80;11.48;;;;;;;;;;4955089;28;20577;-73
2023/01/28 02:58:06;;;;;;;20.48;12.50;;;;;;;;;;4947745;28;20038;-73
2023/01/28 03:00:46;;;;;;;20.38;12.43;;;;;;;;;;4955865;28;20451;-71
2023/01/28 03:03:18;;;;;;;18.05;11.70;;;;;;;;;;4955445;28;20379;-72
2023/01/28 03:06:05;;;;;;;21.98;12.98;;;;;;;;;;4955141;28;20023;-72
2023/01/28 03:38:57;;;;;;;17.42;11.63;;;;;;;;;;4955533;28;20118;-74
2023/01/28 03:41:24;;;;;;;16.25;11.43;;;;;;;;;;4954038;28;20055;-73
2023/01/28 03:43:52;;;;;;;19.42;12.25;;;;;;;;;;4955207;28;20033;-73
2023/01/28 03:46:18;;;;;;;16.17;10.93;;;;;;;;;;4955176;28;20027;-73
2023/01/28 03:48:44;;;;;;;16.73;11.30;;;;;;;;;;4955975;28;20591;-72
2023/01/28 03:51:11;;;;;;;17.23;10.55;;;;;;;;;;4954825;29;20035;-72
2023/01/28 03:53:38;;;;;;;14.50;9.93;;;;;;;;;;4956171;29;20039;-73
2023/01/28 03:56:04;;;;;;;14.27;10.75;;;;;;;;;;4956924;28;20058;-73
2023/01/28 03:58:45;;;;;;;18.55;11.70;;;;;;;;;;4956910;28;20027;-72
2023/01/28 04:01:11;;;;;;;19.60;11.32;;;;;;;;;;4955127;28;20560;-73
2023/01/28 04:03:38;;;;;;;18.92;11.70;;;;;;;;;;4954609;28;20027;-72
2023/01/28 04:06:05;;;;;;;16.55;11.38;;;;;;;;;;4954509;28;20027;-73
2023/01/28 04:08:31;;;;;;;21.20;11.93;;;;;;;;;;4953961;28;20027;-72
2023/01/28 04:10:59;;;;;;;16.92;11.48;;;;;;;;;;4954350;28;20033;-72
2023/01/28 04:13:25;;;;;;;17.85;11.57;;;;;;;;;;4954292;28;20503;-72
2023/01/28 04:15:51;;;;;;;20.25;11.40;;;;;;;;;;4954008;28;20023;-72
2023/01/28 04:18:18;;;;;;;14.95;10.40;;;;;;;;;;4953835;28;20368;-70
2023/01/28 04:20:44;;;;;;;15.95;10.85;;;;;;;;;;4954187;28;20031;-71
2023/01/28 04:23:10;;;;;;;16.45;10.60;;;;;;;;;;4953976;28;20031;-71
2023/01/28 04:25:36;;;;;;;17.98;10.07;;;;;;;;;;4953754;28;20417;-71
2023/01/28 04:28:02;;;;;;;16.73;10.88;;;;;;;;;;4954358;28;20023;-72
2023/01/28 04:30:28;;;;;;;16.15;11.20;;;;;;;;;;4954262;28;20023;-71
2023/01/28 04:32:54;;;;;;;13.93;9.60;;;;;;;;;;4954051;28;20023;-72
2023/01/28 04:35:20;;;;;;;13.38;8.10;;;;;;;;;;4953800;28;20561;-72
2023/01/28 04:37:46;;;;;;;9.95;7.10;;;;;;;;;;4952090;28;20122;-72
2023/01/28 04:40:12;;;;;;;11.85;7.22;;;;;;;;;;4952654;28;20023;-72
2023/01/28 04:42:38;;;;;;;12.32;8.40;;;;;;;;;;4953761;28;20556;-71
2023/01/28 04:45:05;;;;;;;14.63;8.63;;;;;;;;;;4953850;28;20039;-70
2023/01/28 04:47:31;;;;;;;12.98;8.77;;;;;;;;;;4953327;28;20027;-71
2023/01/28 04:49:57;;;;;;;12.02;8.38;;;;;;;;;;4952967;28;20039;-71
2023/01/28 04:52:23;;;;;;;12.85;8.45;;;;;;;;;;4953426;28;20046;-71
2023/01/28 04:54:49;;;;;;;13.13;8.13;;;;;;;;;;4953475;28;20045;-71
2023/01/28 04:57:15;;;;;;;12.25;8.32;;;;;;;;;;4953279;28;20102;-71
2023/01/28 04:59:41;;;;;;;10.23;7.03;;;;;;;;;;4953410;28;20038;-71
2023/01/28 05:02:07;;;;;;;10.43;6.50;;;;;;;;;;4953422;28;20103;-71
2023/01/28 05:04:33;;;;;;;10.95;6.15;;;;;;;;;;4953719;28;20474;-72
2023/01/28 05:06:59;;;;;;;10.15;5.72;;;;;;;;;;4953904;29;20027;-70
2023/01/28 05:09:25;;;;;;;8.75;5.43;;;;;;;;;;4953473;28;20098;-72
2023/01/28 05:11:51;;;;;;;9.98;5.70;;;;;;;;;;4953432;28;20470;-72
2023/01/28 05:14:17;;;;;;;9.95;5.50;;;;;;;;;;4953388;29;20043;-72
2023/01/28 05:16:43;;;;;;;8.40;6.45;;;;;;;;;;4953443;28;20473;-71
2023/01/28 05:19:09;;;;;;;7.95;5.38;;;;;;;;;;4953142;28;20082;-72
2023/01/28 05:21:35;;;;;;;8.43;6.22;;;;;;;;;;4953173;28;20474;-72
2023/01/28 05:24:01;;;;;;;9.75;5.32;;;;;;;;;;4953523;28;20027;-72
2023/01/28 05:26:27;;;;;;;8.18;5.95;;;;;;;;;;4953138;28;20046;-72
2023/01/28 05:28:53;;;;;;;9.48;5.65;;;;;;;;;;4952955;28;20482;-72
2023/01/28 05:31:19;;;;;;;10.32;5.38;;;;;;;;;;4953336;29;20046;-72
2023/01/28 05:33:45;;;;;;;8.95;5.93;;;;;;;;;;4953172;28;20024;-72
2023/01/28 05:36:11;;;;;;;8.50;5.75;;;;;;;;;;4953132;28;20032;-72
2023/01/28 05:38:37;;;;;;;9.80;6.30;;;;;;;;;;4953203;28;20116;-73
2023/01/28 05:41:03;;;;;;;9.48;5.63;;;;;;;;;;4953127;28;20035;-72
2023/01/28 05:43:29;;;;;;;7.68;5.75;;;;;;;;;;4953173;28;20042;-72
2023/01/28 05:45:55;;;;;;;14.73;6.47;;;;;;;;;;4953167;28;20568;-72
2023/01/28 05:48:21;;;;;;;8.82;6.00;;;;;;;;;;4952910;29;20040;-72
2023/01/28 05:50:47;;;;;;;11.52;6.40;;;;;;;;;;4953157;28;20534;-72
2023/01/28 05:53:13;;;;;;;12.77;6.55;;;;;;;;;;4953178;28;20031;-72
2023/01/28 05:55:39;;;;;;;11.48;5.95;;;;;;;;;;4953569;28;20031;-73
2023/01/28 05:58:05;;;;;;;9.05;6.45;;;;;;;;;;4954163;28;20033;-72
2023/01/28 06:00:31;;;;;;;8.35;5.53;;;;;;;;;;4954893;28;20027;-72
2023/01/28 06:02:57;;;;;;;9.07;5.60;;;;;;;;;;4956551;28;20055;-72
2023/01/28 06:05:23;;;;;;;8.57;5.78;;;;;;;;;;4956454;28;20073;-72
2023/01/28 06:07:50;;;;;;;8.63;6.15;;;;;;;;;;4954940;28;20054;-72
2023/01/28 06:10:16;;;;;;;10.00;5.50;;;;;;;;;;4956256;28;20031;-72
2023/01/28 06:12:43;;;;;;;8.60;6.10;;;;;;;;;;4956259;28;20043;-72
2023/01/28 06:15:09;;;;;;;9.48;5.47;;;;;;;;;;4956111;28;20085;-72
2023/01/28 06:17:35;;;;;;;9.05;5.88;;;;;;;;;;4956023;28;20502;-72
2023/01/28 06:20:01;;;;;;;7.40;5.75;;;;;;;;;;4954869;28;20032;-71
2023/01/28 06:22:27;;;;;;;11.45;6.82;;;;;;;;;;4954900;29;20023;-72
2023/01/28 06:24:53;;;;;;;12.25;7.32;;;;;;;;;;4955025;29;20482;-72
2023/01/28 06:27:19;;;;;;;9.13;7.03;;;;;;;;;;4996441;22;20137;-72
2023/01/28 06:29:45;;;;;;;11.77;7.18;;;;;;;;;;4985246;28;20490;-71
2023/01/28 06:32:11;;;;;;;11.02;7.10;;;;;;;;;;4974268;28;20034;-73
2023/01/28 06:34:37;;;;;;;11.52;6.28;;;;;;;;;;4986919;28;20037;-72
2023/01/28 06:37:04;;;;;;;10.23;5.95;;;;;;;;;;4994403;28;20472;-71
2023/01/28 06:39:33;;;;;;;10.15;6.88;;;;;;;;;;4994720;28;20037;-73
2023/01/28 06:41:59;;;;;;;15.07;5.70;;;;;;;;;;4994472;28;20028;-73
2023/01/28 06:44:26;;;;;;;8.98;6.45;;;;;;;;;;4995010;28;20030;-72
2023/01/28 06:46:52;;;;;;;12.18;6.85;;;;;;;;;;4993213;28;20477;-72
2023/01/28 06:49:18;;;;;;;8.80;4.95;;;;;;;;;;4994452;28;20122;-73
2023/01/28 06:51:44;;;;;;;10.50;5.43;;;;;;;;;;4981717;28;20038;-72
2023/01/28 06:54:09;;;;;;;9.68;6.15;;;;;;;;;;4974977;28;20031;-73
2023/01/28 06:56:35;;;;;;;7.32;4.82;;;;;;;;;;4974917;28;20098;-72
2023/01/28 06:59:04;;;;;;;7.95;5.28;;;;;;;;;;4974562;28;20098;-72
2023/01/28 07:01:30;;;;;;;13.13;5.78;;;;;;;;;;4975085;28;20027;-74
2023/01/28 07:03:56;;;;;;;8.27;5.13;;;;;;;;;;4974948;28;20043;-73
2023/01/28 07:06:22;;;;;;;11.45;5.03;;;;;;;;;;4973460;28;20477;-73
2023/01/28 07:08:48;;;;;;;8.82;4.72;;;;;;;;;;4987757;28;20527;-74
2023/01/28 07:11:15;;;;;;;7.32;4.00;;;;;;;;;;4993652;28;20027;-73
2023/01/28 07:13:42;;;;;;;9.80;5.03;;;;;;;;;;4996664;28;20090;-73
2023/01/28 07:16:08;;;;;;;6.45;4.60;;;;;;;;;;5013823;28;20110;-73
2023/01/28 07:18:34;;;;;;;5.80;4.10;;;;;;;;;;5010159;28;20089;-73
2023/01/28 07:21:00;;;;;;;5.80;4.07;;;;;;;;;;5012888;28;20038;-73
2023/01/28 07:23:26;;;;;;;8.65;4.65;;;;;;;;;;4995448;28;20125;-73
2023/01/28 07:25:52;;;;;;;6.43;4.28;;;;;;;;;;5006712;28;20508;-73
2023/01/28 07:28:20;;;;;;;6.93;4.60;;;;;;;;;;4996493;28;20022;-73
2023/01/28 07:30:52;;;;;;;8.50;5.13;;;;;;;;;;4994283;28;20030;-73
2023/01/28 07:33:18;;;;;;;7.38;3.72;;;;;;;;;;4993865;28;20033;-74
2023/01/28 07:35:45;;;;;;;7.93;4.95;;;;;;;;;;4993923;28;20030;-73
2023/01/28 07:38:11;;;;;;;7.60;4.88;;;;;;;;;;4993466;28;20046;-73
2023/01/28 07:40:38;;;;;;;8.48;5.63;;;;;;;;;;4993745;28;20027;-72
2023/01/28 07:43:06;;;;;;;9.27;4.35;;;;;;;;;;4979239;28;20026;-72
2023/01/28 07:45:32;;;;;;;7.53;4.18;;;;;;;;;;4974375;28;20023;-72
2023/01/28 07:48:02;;;;;;;6.28;3.28;;;;;;;;;;4973944;28;20042;-72
2023/01/28 07:50:29;;;;;;;4.43;2.80;;;;;;;;;;4979422;28;20022;-72
2023/01/28 07:52:55;;;;;;;6.47;3.20;;;;;;;;;;4978830;28;20113;-72
2023/01/28 07:55:22;;;;;;;5.68;3.38;;;;;;;;;;4980152;28;20023;-71
2023/01/28 07:57:52;;;;;;;4.95;3.80;;;;;;;;;;4972613;28;20034;-71
2023/01/28 08:00:18;;;;;;;3.33;2.77;;;;;;;;;;4989014;28;20022;-72
2023/01/28 08:02:46;;;;;;;4.85;3.75;;;;;;;;;;4992922;28;20041;-72
2023/01/28 08:05:14;;;;;;;7.93;4.03;;;;;;;;;;4992520;28;20054;-72
2023/01/28 08:07:40;;;;;;;3.83;3.15;;;;;;;;;;4984666;28;20030;-70
2023/01/28 08:10:06;;;;;;;8.45;3.75;;;;;;;;;;4971190;28;20113;-72
2023/01/28 08:12:32;;;;;;;4.68;3.50;;;;;;;;;;4971194;28;20042;-72
2023/01/28 08:14:58;;;;;;;5.53;3.67;;;;;;;;;;4971467;28;20030;-72
2023/01/28 08:17:24;;;;;;;6.50;3.80;;;;;;;;;;4970753;28;20023;-75
2023/01/28 08:19:50;;;;;;;5.75;3.38;;;;;;;;;;4971291;28;20034;-73
2023/01/28 08:22:16;;;;;;;6.70;4.28;;;;;;;;;;4971229;28;20031;-72
2023/01/28 08:24:42;;;;;;;6.15;3.63;;;;;;;;;;4980241;28;20478;-73
2023/01/28 08:27:08;;;;;;;7.38;3.40;;;;;;;;;;4992125;28;20049;-72
2023/01/28 08:29:34;;;;;;;7.40;3.47;;;;;;;;;;4991397;28;20085;-72
2023/01/28 08:32:00;;;;;;;6.03;3.47;;;;;;;;;;4992581;28;20054;-71
2023/01/28 08:34:26;;;;;;;9.20;4.30;;;;;;;;;;4989816;28;20085;-73
2023/01/28 08:36:52;;;;;;;5.78;4.28;;;;;;;;;;4990662;28;20034;-73
2023/01/28 08:39:18;;;;;;;6.82;2.90;;;;;;;;;;4987506;28;20032;-73
2023/01/28 08:41:44;;;;;;;4.93;3.33;;;;;;;;;;4992297;28;20384;-74
2023/01/28 08:44:10;;;;;;;4.97;3.60;;;;;;;;;;4992947;28;20076;-74
2023/01/28 08:46:36;;;;;;;4.10;3.20;;;;;;;;;;4992688;28;20113;-75
2023/01/28 08:49:02;;;;;;;6.78;3.22;;;;;;;;;;4992434;28;20033;-74
2023/01/28 08:51:28;;;;;;;4.75;4.03;;;;;;;;;;4992546;28;20489;-73
2023/01/28 08:53:54;;;;;;;6.63;3.97;;;;;;;;;;4992020;28;20056;-73
2023/01/28 08:56:20;;;;;;;7.70;3.40;;;;;;;;;;4992468;28;20034;-72
2023/01/28 08:58:46;;;;;;;6.43;3.70;;;;;;;;;;4992360;28;20098;-72
2023/01/28 09:01:12;;;;;;;4.97;3.20;;;;;;;;;;4992404;28;20085;-73
2023/01/28 09:03:38;;;;;;;5.55;3.80;;;;;;;;;;4992492;28;20037;-72
2023/01/28 09:06:04;;;;;;;5.13;3.40;;;;;;;;;;4990211;28;20030;-70
2023/01/28 09:08:30;;;;;;;5.85;3.45;;;;;;;;;;4991468;28;20133;-72
2023/01/28 09:10:57;;;;;;;3.92;3.22;;;;;;;;;;4991505;28;20101;-72
2023/01/28 09:13:23;;;;;;;6.15;3.70;;;;;;;;;;4991727;28;20501;-75
2023/01/28 09:15:50;;;;;;;4.78;3.25;;;;;;;;;;4991640;28;20026;-74
2023/01/28 09:18:16;;;;;;;7.28;3.38;;;;;;;;;;4991123;28;20101;-72
2023/01/28 09:20:42;;;;;;;5.95;2.83;;;;;;;;;;4992025;28;20547;-72
2023/01/28 09:23:09;;;;;;;8.25;4.05;;;;;;;;;;4990588;28;20061;-72
2023/01/28 09:25:35;;;;;;;4.22;2.95;;;;;;;;;;4991921;28;20113;-72
2023/01/28 09:28:01;;;;;;;6.13;3.78;;;;;;;;;;4991943;28;20033;-72
2023/01/28 09:30:27;;;;;;;5.00;2.95;;;;;;;;;;4992111;28;20097;-73
2023/01/28 09:32:53;;;;;;;5.45;2.97;;;;;;;;;;4992057;28;20041;-72
2023/01/28 09:35:20;;;;;;;6.28;3.47;;;;;;;;;;4993185;28;20544;-72
2023/01/28 09:37:46;;;;;;;6.68;3.58;;;;;;;;;;4995503;28;20053;-72
2023/01/28 09:40:28;;;;;;;4.72;2.83;;;;;;;;;;4994523;28;20123;-72
2023/01/28 09:43:03;;;;;;;6.38;3.33;;;;;;;;;;4996107;28;20033;-73
2023/01/28 09:45:37;;;;;;;7.25;3.25;;;;;;;;;;4995901;28;20041;-72
2023/01/28 09:48:04;;;;;;;4.32;3.03;;;;;;;;;;4995170;28;20022;-73
2023/01/28 09:50:32;;;;;;;5.00;2.50;;;;;;;;;;4995763;28;20116;-72
2023/01/28 09:53:07;;;;;;;5.57;3.65;;;;;;;;;;4995640;28;20481;-74
2023/01/28 09:55:35;;;;;;;5.00;3.80;;;;;;;;;;4994296;28;20421;-74
2023/01/28 09:58:01;;;;;;;5.07;2.92;;;;;;;;;;4995324;28;20062;-74
2023/01/28 10:00:46;;;;;;;6.50;2.78;;;;;;;;;;4995947;28;20492;-75
2023/01/28 10:03:30;;;;;;;6.82;2.97;;;;;;;;;;4995951;28;20496;-73
2023/01/28 10:05:56;;;;;;;17.85;5.93;;;;;;;;;;4995694;28;20034;-76
2023/01/28 10:08:41;;;;;;;5.45;2.75;;;;;;;;;;4995954;28;20489;-75
2023/01/28 10:11:14;;;;;;;4.22;2.58;;;;;;;;;;4996293;28;20084;-74
2023/01/28 10:14:06;;;;;;;7.00;2.50;;;;;;;;;;4996154;28;20084;-79
2023/01/28 10:16:51;;;;;;;3.67;2.33;;;;;;;;;;4992468;28;20041;-74
2023/01/28 10:19:23;;;;;;;5.88;3.10;;;;;;;;;;4995161;28;20501;-72
2023/01/28 10:21:59;;;;;;;6.30;2.28;;;;;;;;;;4994488;28;20030;-71
2023/01/28 10:24:48;;;;;;;5.93;2.22;;;;;;;;;;4995175;28;20034;-74
2023/01/28 10:27:16;;;;;;;3.35;2.10;;;;;;;;;;4993802;28;20038;-73
2023/01/28 10:29:44;;;;;;;5.25;2.60;;;;;;;;;;4993741;28;20031;-71
2023/01/28 10:32:23;;;;;;;7.05;4.45;;;;;;;;;;4993166;28;20484;-71
2023/01/28 10:34:49;;;;;;;7.38;2.60;;;;;;;;;;4994597;28;20527;-70
2023/01/28 10:37:15;;;;;;;3.85;1.80;;;;;;;;;;4994052;28;20031;-73
2023/01/28 10:39:42;;;;;;;6.18;2.97;;;;;;;;;;4993411;28;20151;-71
2023/01/28 10:42:26;;;;;;;4.95;2.70;;;;;;;;;;4993861;28;20497;-69
2023/01/28 10:44:53;;;;;;;5.57;2.33;;;;;;;;;;4993035;28;20092;-71
2023/01/28 10:47:28;;;;;;;6.38;2.75;;;;;;;;;;4993823;28;20037;-73
2023/01/28 10:49:56;;;;;;;6.25;2.83;;;;;;;;;;4995631;28;20484;-71
2023/01/28 10:52:22;;;;;;;4.88;2.60;;;;;;;;;;4994529;28;20030;-71
2023/01/28 10:54:58;;;;;;;4.95;2.75;;;;;;;;;;4996619;28;20045;-71
2023/01/28 10:57:24;;;;;;;3.22;2.65;;;;;;;;;;4996276;28;20477;-71
2023/01/28 10:59:50;;;;;;;5.38;2.80;;;;;;;;;;4996270;28;20298;-71
2023/01/28 11:02:31;;;;;;;5.85;2.83;;;;;;;;;;4995152;28;20030;-71
2023/01/28 11:05:05;;;;;;;6.25;3.22;;;;;;;;;;4995204;28;20041;-71
2023/01/28 11:07:32;;;;;;;6.68;2.80;;;;;;;;;;4994474;28;20108;-72
2023/01/28 11:09:58;;;;;;;6.90;2.97;;;;;;;;;;4994513;28;20026;-72
2023/01/28 11:12:26;;;;;;;6.70;4.10;;;;;;;;;;4994383;28;20023;-71
2023/01/28 11:14:56;;;;;;;8.35;3.30;;;;;;;;;;4993765;28;20289;-73
2023/01/28 11:17:24;;;;;;;6.10;3.13;;;;;;;;;;4992444;28;20093;-72
2023/01/28 11:19:51;;;;;;;5.93;2.72;;;;;;;;;;4992734;28;20117;-72
2023/01/28 11:22:22;;;;;;;5.30;2.97;;;;;;;;;;4994092;28;20080;-68
2023/01/28 11:24:48;;;;;;;6.35;3.00;;;;;;;;;;4994303;28;20113;-73
2023/01/28 11:27:18;;;;;;;3.67;2.70;;;;;;;;;;4993836;28;20525;-73
2023/01/28 11:29:44;;;;;;;9.00;3.58;;;;;;;;;;4994357;28;20073;-70
2023/01/28 11:32:18;;;;;;;5.13;2.90;;;;;;;;;;4992952;28;20057;-73
2023/01/28 11:34:49;;;;;;;9.18;4.03;;;;;;;;;;4992665;28;20030;-70
2023/01/28 11:37:15;;;;;;;5.30;2.88;;;;;;;;;;4993501;28;20093;-72
2023/01/28 11:39:41;;;;;;;4.03;2.50;;;;;;;;;;4993692;28;20072;-71
2023/01/28 11:42:18;;;;;;;3.45;2.10;;;;;;;;;;4993770;28;20080;-72
2023/01/28 11:44:44;;;;;;;6.47;3.10;;;;;;;;;;4993227;28;20018;-71
2023/01/28 11:47:13;;;;;;;6.57;2.90;;;;;;;;;;4993528;28;20026;-72
2023/01/28 11:49:51;;;;;;;4.15;2.20;;;;;;;;;;4993341;28;20042;-72
2023/01/28 11:52:17;;;;;;;4.65;2.60;;;;;;;;;;4993363;28;20113;-72
2023/01/28 11:54:53;;;;;;;3.50;2.40;;;;;;;;;;4992120;28;20118;-72
2023/01/28 11:57:31;;;;;;;10.65;5.18;;;;;;;;;;4992787;28;20587;-72
2023/01/28 12:00:10;;;;;;;4.38;2.70;;;;;;;;;;4975187;28;20089;-71
2023/01/28 12:02:43;;;;;;;6.18;2.63;;;;;;;;;;4993101;28;20052;-73
2023/01/28 12:05:15;;;;;;;7.30;3.17;;;;;;;;;;4993226;28;20030;-70
2023/01/28 12:07:44;;;;;;;7.70;2.75;;;;;;;;;;4992779;28;20078;-70
2023/01/28 12:10:39;;;;;;;6.35;2.85;;;;;;;;;;4993308;28;20057;-70
2023/01/28 12:13:12;;;;;;;7.47;2.53;;;;;;;;;;4977188;28;20126;-71
2023/01/28 12:16:11;;;;;;;5.38;2.55;;;;;;;;;;4992837;28;20081;-70
2023/01/28 12:19:03;;;;;;;11.57;3.95;;;;;;;;;;4967280;28;20129;-72
2023/01/28 12:21:47;;;;;;;5.40;3.28;;;;;;;;;;4958553;28;20038;-71
2023/01/28 12:24:17;;;;;;;5.88;2.97;;;;;;;;;;4972880;28;20030;-72
2023/01/28 12:27:03;;;;;;;5.53;3.55;;;;;;;;;;5004803;23;20058;-71
2023/01/28 12:29:35;;;;;;;5.40;3.38;;;;;;;;;;4971223;28;20031;-71
2023/01/28 12:32:04;;;;;;;3.13;2.05;;;;;;;;;;4972026;28;20019;-72
2023/01/28 12:34:36;;;;;;;3.20;2.20;;;;;;;;;;4971791;28;20493;-72
2023/01/28 12:37:08;;;;;;;6.75;2.33;;;;;;;;;;4987169;28;20038;-71
2023/01/28 12:39:57;;;;;;;8.15;2.78;;;;;;;;;;4987603;28;20019;-72
2023/01/28 12:42:36;;;;;;;4.28;2.40;;;;;;;;;;4963519;28;20389;-72
2023/01/28 12:45:11;;;;;;;5.32;3.58;;;;;;;;;;4971814;28;20031;-73
2023/01/28 12:47:39;;;;;;;4.75;2.97;;;;;;;;;;4972331;28;20027;-72
2023/01/28 12:50:11;;;;;;;6.82;3.30;;;;;;;;;;4972432;28;20421;-72
2023/01/28 12:52:42;;;;;;;4.97;3.17;;;;;;;;;;4972763;28;20034;-71
2023/01/28 12:55:17;;;;;;;8.05;3.30;;;;;;;;;;4972501;28;20030;-72
2023/01/28 12:57:44;;;;;;;4.53;2.53;;;;;;;;;;4970872;28;20031;-72
2023/01/28 13:00:23;;;;;;;7.78;2.90;;;;;;;;;;4970655;28;20062;-72
2023/01/28 13:03:04;;;;;;;5.55;2.78;;;;;;;;;;4970633;28;20027;-71
2023/01/28 13:05:34;;;;;;;3.92;2.72;;;;;;;;;;4971166;28;20125;-72
2023/01/28 13:08:05;;;;;;;3.97;2.60;;;;;;;;;;4970421;28;20034;-71
2023/01/28 13:10:38;;;;;;;5.05;2.70;;;;;;;;;;4970543;28;20027;-73
2023/01/28 13:13:05;;;;;;;6.20;2.47;;;;;;;;;;4972106;28;20444;-72
2023/01/28 13:15:31;;;;;;;8.98;3.15;;;;;;;;;;4972395;28;20369;-72
2023/01/28 13:17:57;;;;;;;7.82;4.15;;;;;;;;;;4972054;28;20315;-73
2023/01/28 13:20:45;;;;;;;7.50;3.80;;;;;;;;;;4972775;28;20023;-72
2023/01/28 13:23:22;;;;;;;8.50;3.35;;;;;;;;;;4971358;28;20019;-71
2023/01/28 13:25:49;;;;;;;5.70;4.20;;;;;;;;;;4972159;28;20038;-72
2023/01/28 13:28:26;;;;;;;6.22;3.70;;;;;;;;;;4972440;28;20512;-73
2023/01/28 13:31:00;;;;;;;5.72;3.63;;;;;;;;;;4972458;28;20035;-71
2023/01/28 13:33:28;;;;;;;10.27;3.60;;;;;;;;;;4972362;28;20031;-72
2023/01/28 13:35:54;;;;;;;5.63;2.92;;;;;;;;;;4972338;28;20055;-71
2023/01/28 13:38:21;;;;;;;6.35;3.13;;;;;;;;;;4971025;28;20066;-72
2023/01/28 13:41:13;;;;;;;3.92;2.78;;;;;;;;;;4972568;28;20026;-72
2023/01/28 13:43:41;;;;;;;7.13;2.90;;;;;;;;;;4970541;28;20035;-72
2023/01/28 13:46:25;;;;;;;4.97;3.22;;;;;;;;;;4970926;28;20050;-72
2023/01/28 13:48:53;;;;;;;6.35;3.53;;;;;;;;;;4972661;28;20081;-71
2023/01/28 13:51:19;;;;;;;4.28;3.20;;;;;;;;;;4972262;28;20081;-72
2023/01/28 13:53:48;;;;;;;6.70;2.83;;;;;;;;;;4971832;28;20113;-72
2023/01/28 13:56:20;;;;;;;8.27;3.00;;;;;;;;;;4970830;28;20497;-73
2023/01/28 13:58:55;;;;;;;7.25;2.38;;;;;;;;;;4971826;28;20027;-73
2023/01/28 14:01:31;;;;;;;4.05;2.60;;;;;;;;;;4972111;28;20038;-73
2023/01/28 14:04:12;;;;;;;8.63;3.35;;;;;;;;;;4971915;28;20056;-72
2023/01/28 14:06:38;;;;;;;;;;;;;;;;;;4972358;28;20031;-72
2023/01/28 14:09:13;;;;;;;3.70;2.38;;;;;;;;;;4972119;28;20313;-71
2023/01/28 14:11:39;;;;;;;4.45;2.88;;;;;;;;;;4972620;28;20054;-71
2023/01/28 14:14:18;;;;;;;5.63;3.30;;;;;;;;;;4972250;28;20078;-72
2023/01/28 14:16:47;;;;;;;4.82;2.88;;;;;;;;;;4972167;28;20023;-72
2023/01/28 14:19:13;;;;;;;5.07;2.85;;;;;;;;;;4971880;28;20047;-72
2023/01/28 14:21:40;;;;;;;9.32;3.45;;;;;;;;;;4972550;28;20026;-71
2023/01/28 14:24:12;;;;;;;6.43;2.95;;;;;;;;;;4975378;28;20031;-71
2023/01/28 14:26:49;;;;;;;8.40;3.97;;;;;;;;;;4975033;28;20409;-72
2023/01/28 14:29:26;;;;;;;5.95;3.17;;;;;;;;;;4975250;28;20497;-72
2023/01/28 14:31:53;;;;;;;6.05;2.97;;;;;;;;;;4975253;28;20031;-72
2023/01/28 14:34:22;;;;;;;5.35;3.17;;;;;;;;;;4975333;28;20034;-72
2023/01/28 14:36:49;;;;;;;3.90;2.47;;;;;;;;;;4971760;28;20031;-72
2023/01/28 14:39:16;;;;;;;4.10;2.78;;;;;;;;;;4970927;28;20031;-71
2023/01/28 14:41:43;;;;;;;6.63;3.35;;;;;;;;;;4973048;28;20034;-73
2023/01/28 14:44:12;;;;;;;57.08;26.08;;;;;;;;;;4975127;28;20089;-70
2023/01/28 14:46:45;;;;;;;29.42;11.90;;;;;;;;;;4975324;28;20027;-72
2023/01/28 14:49:17;;;;;;;14.65;6.68;;;;;;;;;;4974866;28;20085;-70
2023/01/28 14:51:54;;;;;;;11.88;4.80;;;;;;;;;;4974943;28;20034;-69
2023/01/28 14:54:38;;;;;;;7.55;3.00;;;;;;;;;;4989730;28;20035;-72
2023/01/28 14:57:16;;;;;;;4.88;2.17;;;;;;;;;;4974691;28;20386;-71
2023/01/28 14:59:47;;;;;;;13.73;3.58;;;;;;;;;;4975002;28;20026;-72
2023/01/28 15:02:20;;;;;;;11.20;5.63;;;;;;;;;;4975266;28;20410;-71
2023/01/28 15:04:46;;;;;;;6.30;3.40;;;;;;;;;;4975727;28;20337;-71
2023/01/28 15:07:23;;;;;;;24.65;10.35;;;;;;;;;;4974496;28;20030;-71
2023/01/28 15:10:04;;;;;;;13.88;6.88;;;;;;;;;;4974528;28;20090;-72
2023/01/28 15:12:32;;;;;;;7.88;3.88;;;;;;;;;;4974605;28;20030;-72
2023/01/28 15:14:59;;;;;;;5.63;3.03;;;;;;;;;;4972987;28;20030;-72
2023/01/28 15:17:26;;;;;;;25.20;11.75;;;;;;;;;;4973087;28;20023;-72
2023/01/28 15:19:54;;;;;;;5.35;3.15;;;;;;;;;;4973185;28;20026;-72
2023/01/28 15:22:22;;;;;;;9.10;4.40;;;;;;;;;;4974246;28;20015;-73